Terminal Aerodrome Forecast
Issued by NWS State College, PA

Home | Current Version | Previous Version | Text Only | Print | Product List | Glossary On
Versions: 1 2 3 4 5 6 7 8 9 10 11 12 13 14 15 16 17 18 19 20 21 22 23 24 25 26 27 28 29 30 31 32 33 34 35 36 37 38 39 40 41 42 43 44 45 46 47 48
000
FTUS41 KCTP 270939 AAB
TAFMDT
TAF AMD
KMDT 270939Z 2710/2806 11005KT 5SM -SHRA OVC005
     FM271600 23004KT P6SM BKN010
     FM272000 26005KT P6SM SCT025 BKN050
     FM280300 12003KT 4SM BR OVC050=

USA.gov is the U.S. government's official web portal to all federal, state and local government web resources and services.